sensor_id;sensor_type;location;lat;lon;timestamp;pressure;altitude;pressure_sealevel;temperature;humidity
34073;BME280;20346;52.702;16.886;2023-06-10T00:02:16;100909.44;;;20.82;41.77
34073;BME280;20346;52.702;16.886;2023-06-10T00:05:02;100910.52;;;20.82;41.82
34073;BME280;20346;52.702;16.886;2023-06-10T00:07:48;100915.30;;;20.81;42.11
34073;BME280;20346;52.702;16.886;2023-06-10T00:10:35;100915.19;;;20.74;42.10
34073;BME280;20346;52.702;16.886;2023-06-10T00:13:21;100912.41;;;20.67;42.16
34073;BME280;20346;52.702;16.886;2023-06-10T00:16:07;100908.16;;;20.64;42.27
34073;BME280;20346;52.702;16.886;2023-06-10T00:18:53;100910.00;;;20.66;42.27
34073;BME280;20346;52.702;16.886;2023-06-10T00:21:41;100907.13;;;20.64;42.23
34073;BME280;20346;52.702;16.886;2023-06-10T00:24:27;100905.17;;;20.58;42.56
34073;BME280;20346;52.702;16.886;2023-06-10T00:27:13;100904.23;;;20.52;42.59
34073;BME280;20346;52.702;16.886;2023-06-10T00:29:59;100904.02;;;20.46;42.56
34073;BME280;20346;52.702;16.886;2023-06-10T00:32:45;100903.85;;;20.39;42.81
34073;BME280;20346;52.702;16.886;2023-06-10T00:35:30;100903.66;;;20.32;42.81
34073;BME280;20346;52.702;16.886;2023-06-10T00:38:16;100907.27;;;20.27;42.83
34073;BME280;20346;52.702;16.886;2023-06-10T00:41:02;100910.62;;;20.24;42.97
34073;BME280;20346;52.702;16.886;2023-06-10T00:43:48;100907.08;;;20.22;42.91
34073;BME280;20346;52.702;16.886;2023-06-10T00:46:34;100905.86;;;20.18;43.14
34073;BME280;20346;52.702;16.886;2023-06-10T00:49:20;100907.43;;;20.14;43.17
34073;BME280;20346;52.702;16.886;2023-06-10T00:52:06;100910.21;;;20.11;43.19
34073;BME280;20346;52.702;16.886;2023-06-10T00:54:52;100909.86;;;20.04;43.31
34073;BME280;20346;52.702;16.886;2023-06-10T00:57:38;100912.90;;;20.00;43.48
34073;BME280;20346;52.702;16.886;2023-06-10T01:00:25;100915.23;;;19.95;43.39
34073;BME280;20346;52.702;16.886;2023-06-10T01:03:11;100917.49;;;19.92;43.70
34073;BME280;20346;52.702;16.886;2023-06-10T01:05:59;100918.54;;;19.89;43.57
34073;BME280;20346;52.702;16.886;2023-06-10T01:08:50;100921.71;;;19.84;43.72
34073;BME280;20346;52.702;16.886;2023-06-10T01:11:43;100922.71;;;19.78;43.73
34073;BME280;20346;52.702;16.886;2023-06-10T01:14:32;100924.44;;;19.72;43.91
34073;BME280;20346;52.702;16.886;2023-06-10T01:17:18;100923.44;;;19.68;43.99
34073;BME280;20346;52.702;16.886;2023-06-10T01:20:04;100923.45;;;19.64;44.19
34073;BME280;20346;52.702;16.886;2023-06-10T01:22:57;100920.33;;;19.56;44.19
34073;BME280;20346;52.702;16.886;2023-06-10T01:25:49;100921.40;;;19.52;44.18
34073;BME280;20346;52.702;16.886;2023-06-10T01:34:19;100922.39;;;19.45;44.31
34073;BME280;20346;52.702;16.886;2023-06-10T01:37:06;100922.75;;;19.45;44.41
34073;BME280;20346;52.702;16.886;2023-06-10T01:39:55;100921.67;;;19.42;44.54
34073;BME280;20346;52.702;16.886;2023-06-10T01:42:42;100917.83;;;19.38;44.56
34073;BME280;20346;52.702;16.886;2023-06-10T01:45:28;100918.92;;;19.37;44.71
34073;BME280;20346;52.702;16.886;2023-06-10T01:48:14;100921.05;;;19.37;44.71
34073;BME280;20346;52.702;16.886;2023-06-10T01:51:00;100927.88;;;19.37;44.67
34073;BME280;20346;52.702;16.886;2023-06-10T01:53:46;100930.91;;;19.35;44.81
34073;BME280;20346;52.702;16.886;2023-06-10T01:56:32;100933.82;;;19.33;44.95
34073;BME280;20346;52.702;16.886;2023-06-10T01:59:18;100937.85;;;19.29;45.00
34073;BME280;20346;52.702;16.886;2023-06-10T02:02:04;100940.05;;;19.27;45.12
34073;BME280;20346;52.702;16.886;2023-06-10T02:04:51;100941.71;;;19.25;45.10
34073;BME280;20346;52.702;16.886;2023-06-10T02:07:36;100947.63;;;19.25;45.23
34073;BME280;20346;52.702;16.886;2023-06-10T02:10:23;100951.79;;;19.27;45.23
34073;BME280;20346;52.702;16.886;2023-06-10T02:13:09;100952.86;;;19.26;45.39
34073;BME280;20346;52.702;16.886;2023-06-10T02:15:55;100955.60;;;19.24;45.26
34073;BME280;20346;52.702;16.886;2023-06-10T02:18:41;100957.99;;;19.21;45.40
34073;BME280;20346;52.702;16.886;2023-06-10T02:21:28;100961.94;;;19.19;45.50
34073;BME280;20346;52.702;16.886;2023-06-10T02:24:14;100963.84;;;19.15;45.61
34073;BME280;20346;52.702;16.886;2023-06-10T02:27:00;100959.21;;;19.10;45.63
34073;BME280;20346;52.702;16.886;2023-06-10T02:29:47;100962.89;;;19.10;45.64
34073;BME280;20346;52.702;16.886;2023-06-10T02:32:33;100967.18;;;19.07;45.76
34073;BME280;20346;52.702;16.886;2023-06-10T02:35:19;100973.39;;;19.09;45.84
34073;BME280;20346;52.702;16.886;2023-06-10T02:38:05;100972.02;;;19.12;45.78
34073;BME280;20346;52.702;16.886;2023-06-10T02:40:50;100975.12;;;19.13;45.91
34073;BME280;20346;52.702;16.886;2023-06-10T02:43:36;100978.20;;;19.11;45.99
34073;BME280;20346;52.702;16.886;2023-06-10T02:46:22;100981.05;;;19.10;46.10
34073;BME280;20346;52.702;16.886;2023-06-10T02:49:08;100983.56;;;19.09;46.14
34073;BME280;20346;52.702;16.886;2023-06-10T02:51:54;100983.38;;;19.09;46.09
34073;BME280;20346;52.702;16.886;2023-06-10T02:54:42;100986.48;;;19.10;46.13
34073;BME280;20346;52.702;16.886;2023-06-10T02:57:28;100988.59;;;19.13;46.25
34073;BME280;20346;52.702;16.886;2023-06-10T03:00:14;100991.61;;;19.16;46.17
34073;BME280;20346;52.702;16.886;2023-06-10T03:03:00;100995.23;;;19.17;46.15
34073;BME280;20346;52.702;16.886;2023-06-10T03:05:49;101000.13;;;19.21;46.18
34073;BME280;20346;52.702;16.886;2023-06-10T03:08:34;101000.87;;;19.24;46.16
34073;BME280;20346;52.702;16.886;2023-06-10T03:11:20;101000.30;;;19.28;46.20
34073;BME280;20346;52.702;16.886;2023-06-10T03:14:06;101006.48;;;19.34;46.22
34073;BME280;20346;52.702;16.886;2023-06-10T03:16:52;101008.58;;;19.38;46.28
34073;BME280;20346;52.702;16.886;2023-06-10T03:19:39;101010.34;;;19.41;46.12
34073;BME280;20346;52.702;16.886;2023-06-10T03:22:25;101013.41;;;19.46;46.22
34073;BME280;20346;52.702;16.886;2023-06-10T03:25:10;101010.20;;;19.53;46.19
34073;BME280;20346;52.702;16.886;2023-06-10T03:27:59;101015.52;;;19.58;46.18
34073;BME280;20346;52.702;16.886;2023-06-10T03:30:45;101025.57;;;19.64;46.08
34073;BME280;20346;52.702;16.886;2023-06-10T03:33:31;101028.90;;;19.68;46.01
34073;BME280;20346;52.702;16.886;2023-06-10T03:36:18;101027.05;;;19.74;45.89
34073;BME280;20346;52.702;16.886;2023-06-10T03:39:04;101029.24;;;19.78;46.02
34073;BME280;20346;52.702;16.886;2023-06-10T03:41:50;101037.34;;;19.81;45.80
34073;BME280;20346;52.702;16.886;2023-06-10T03:44:36;101046.41;;;19.85;46.06
34073;BME280;20346;52.702;16.886;2023-06-10T03:47:23;101054.98;;;19.89;45.89
34073;BME280;20346;52.702;16.886;2023-06-10T03:50:09;101059.04;;;19.92;45.96
34073;BME280;20346;52.702;16.886;2023-06-10T03:52:55;101065.85;;;19.96;45.86
34073;BME280;20346;52.702;16.886;2023-06-10T03:55:41;101066.11;;;19.98;45.80
34073;BME280;20346;52.702;16.886;2023-06-10T03:58:27;101072.35;;;19.99;45.85
34073;BME280;20346;52.702;16.886;2023-06-10T04:01:13;101078.05;;;20.01;45.88
34073;BME280;20346;52.702;16.886;2023-06-10T04:03:59;101083.14;;;20.00;45.83
34073;BME280;20346;52.702;16.886;2023-06-10T04:06:46;101084.95;;;20.03;45.92
34073;BME280;20346;52.702;16.886;2023-06-10T04:09:34;101091.16;;;20.05;46.00
34073;BME280;20346;52.702;16.886;2023-06-10T04:12:21;101099.14;;;20.06;45.80
34073;BME280;20346;52.702;16.886;2023-06-10T04:15:07;101104.92;;;20.06;46.09
34073;BME280;20346;52.702;16.886;2023-06-10T04:17:53;101103.95;;;20.08;46.17
34073;BME280;20346;52.702;16.886;2023-06-10T04:20:39;101106.27;;;20.11;46.16
34073;BME280;20346;52.702;16.886;2023-06-10T04:23:25;101107.27;;;20.15;45.98
34073;BME280;20346;52.702;16.886;2023-06-10T04:26:11;101112.73;;;20.18;45.96
34073;BME280;20346;52.702;16.886;2023-06-10T04:28:58;101117.34;;;20.21;46.08
34073;BME280;20346;52.702;16.886;2023-06-10T04:31:44;101118.73;;;20.21;46.14
34073;BME280;20346;52.702;16.886;2023-06-10T04:34:32;101119.70;;;20.23;46.12
34073;BME280;20346;52.702;16.886;2023-06-10T04:37:18;101124.21;;;20.27;46.04
34073;BME280;20346;52.702;16.886;2023-06-10T04:40:04;101125.02;;;20.32;45.99
34073;BME280;20346;52.702;16.886;2023-06-10T04:42:51;101127.81;;;20.35;46.08
34073;BME280;20346;52.702;16.886;2023-06-10T04:45:37;101127.29;;;20.40;46.08
34073;BME280;20346;52.702;16.886;2023-06-10T04:48:23;101133.10;;;20.43;46.10
34073;BME280;20346;52.702;16.886;2023-06-10T04:51:10;101135.21;;;20.46;46.16
34073;BME280;20346;52.702;16.886;2023-06-10T04:53:56;101141.06;;;20.52;46.09
34073;BME280;20346;52.702;16.886;2023-06-10T04:56:42;101148.34;;;20.61;46.15
34073;BME280;20346;52.702;16.886;2023-06-10T04:59:27;101154.00;;;20.70;46.09
34073;BME280;20346;52.702;16.886;2023-06-10T05:02:13;101157.27;;;20.78;46.12
34073;BME280;20346;52.702;16.886;2023-06-10T05:04:59;101162.22;;;20.84;46.07
34073;BME280;20346;52.702;16.886;2023-06-10T05:07:45;101165.55;;;20.88;46.23
34073;BME280;20346;52.702;16.886;2023-06-10T05:10:31;101169.88;;;20.89;46.28
34073;BME280;20346;52.702;16.886;2023-06-10T05:13:17;101172.15;;;20.92;46.16
34073;BME280;20346;52.702;16.886;2023-06-10T05:16:03;101179.14;;;20.99;46.19
34073;BME280;20346;52.702;16.886;2023-06-10T05:18:49;101178.65;;;21.06;46.30
34073;BME280;20346;52.702;16.886;2023-06-10T05:21:36;101182.98;;;21.13;46.17
34073;BME280;20346;52.702;16.886;2023-06-10T05:24:22;101182.48;;;21.20;46.34
34073;BME280;20346;52.702;16.886;2023-06-10T05:27:09;101182.84;;;21.27;46.24
34073;BME280;20346;52.702;16.886;2023-06-10T05:29:55;101183.17;;;21.34;46.31
34073;BME280;20346;52.702;16.886;2023-06-10T05:32:40;101181.80;;;21.40;46.14
34073;BME280;20346;52.702;16.886;2023-06-10T05:35:26;101183.86;;;21.41;46.26
34073;BME280;20346;52.702;16.886;2023-06-10T05:38:12;101184.77;;;21.40;46.14
34073;BME280;20346;52.702;16.886;2023-06-10T05:40:58;101186.70;;;21.40;46.17
34073;BME280;20346;52.702;16.886;2023-06-10T05:43:44;101183.63;;;21.35;46.25
34073;BME280;20346;52.702;16.886;2023-06-10T05:46:30;101187.71;;;21.37;46.23
34073;BME280;20346;52.702;16.886;2023-06-10T05:49:16;101185.58;;;21.38;46.16
34073;BME280;20346;52.702;16.886;2023-06-10T05:52:02;101182.75;;;21.39;46.22
34073;BME280;20346;52.702;16.886;2023-06-10T05:54:48;101182.96;;;21.51;46.38
34073;BME280;20346;52.702;16.886;2023-06-10T05:57:34;101185.53;;;21.69;46.19
34073;BME280;20346;52.702;16.886;2023-06-10T06:00:20;101187.00;;;21.84;46.23
34073;BME280;20346;52.702;16.886;2023-06-10T06:03:07;101185.92;;;21.97;46.18
34073;BME280;20346;52.702;16.886;2023-06-10T06:05:53;101182.08;;;22.13;46.06
34073;BME280;20346;52.702;16.886;2023-06-10T06:08:39;101183.28;;;22.27;45.94
34073;BME280;20346;52.702;16.886;2023-06-10T06:11:25;101186.58;;;22.55;45.99
34073;BME280;20346;52.702;16.886;2023-06-10T06:14:11;101181.07;;;22.87;45.73
34073;BME280;20346;52.702;16.886;2023-06-10T06:16:57;101182.27;;;23.14;45.61
34073;BME280;20346;52.702;16.886;2023-06-10T06:19:43;101177.10;;;23.47;45.48
34073;BME280;20346;52.702;16.886;2023-06-10T06:22:29;101171.54;;;23.74;45.45
34073;BME280;20346;52.702;16.886;2023-06-10T06:25:15;101170.45;;;24.16;45.19
34073;BME280;20346;52.702;16.886;2023-06-10T06:28:01;101172.73;;;24.54;45.04
34073;BME280;20346;52.702;16.886;2023-06-10T06:30:47;101172.08;;;24.64;44.80
34073;BME280;20346;52.702;16.886;2023-06-10T06:33:33;101177.02;;;24.69;44.62
34073;BME280;20346;52.702;16.886;2023-06-10T06:36:19;101177.78;;;24.66;44.56
34073;BME280;20346;52.702;16.886;2023-06-10T06:39:05;101173.77;;;24.55;44.40
34073;BME280;20346;52.702;16.886;2023-06-10T06:41:51;101177.75;;;24.43;44.53
34073;BME280;20346;52.702;16.886;2023-06-10T06:44:37;101176.64;;;24.24;44.35
34073;BME280;20346;52.702;16.886;2023-06-10T06:47:23;101181.36;;;24.00;44.14
34073;BME280;20346;52.702;16.886;2023-06-10T06:50:10;101185.77;;;23.84;44.16
34073;BME280;20346;52.702;16.886;2023-06-10T06:52:56;101184.33;;;23.81;44.32
34073;BME280;20346;52.702;16.886;2023-06-10T06:55:41;101183.23;;;23.88;44.14
34073;BME280;20346;52.702;16.886;2023-06-10T06:58:27;101183.45;;;23.90;43.93
34073;BME280;20346;52.702;16.886;2023-06-10T07:01:13;101181.27;;;24.07;44.05
34073;BME280;20346;52.702;16.886;2023-06-10T07:04:02;101175.89;;;25.18;43.69
34073;BME280;20346;52.702;16.886;2023-06-10T07:06:48;101182.02;;;26.64;43.46
34073;BME280;20346;52.702;16.886;2023-06-10T07:09:34;101181.46;;;28.40;42.54
34073;BME280;20346;52.702;16.886;2023-06-10T07:12:20;101185.66;;;29.09;42.12
34073;BME280;20346;52.702;16.886;2023-06-10T07:15:09;101184.02;;;28.97;41.84
34073;BME280;20346;52.702;16.886;2023-06-10T07:17:55;101183.02;;;28.32;41.87
34073;BME280;20346;52.702;16.886;2023-06-10T07:20:41;101191.22;;;27.68;41.94
34073;BME280;20346;52.702;16.886;2023-06-10T07:23:27;101195.10;;;27.25;41.94
34073;BME280;20346;52.702;16.886;2023-06-10T07:26:13;101192.00;;;26.96;42.00
34073;BME280;20346;52.702;16.886;2023-06-10T07:28:59;101195.21;;;26.68;41.79
34073;BME280;20346;52.702;16.886;2023-06-10T07:31:45;101192.43;;;26.41;41.67
34073;BME280;20346;52.702;16.886;2023-06-10T07:34:31;101190.06;;;26.15;41.62
34073;BME280;20346;52.702;16.886;2023-06-10T07:37:17;101195.29;;;25.84;41.44
34073;BME280;20346;52.702;16.886;2023-06-10T07:40:05;101196.34;;;25.59;41.44
34073;BME280;20346;52.702;16.886;2023-06-10T07:42:51;101196.87;;;25.44;41.48
34073;BME280;20346;52.702;16.886;2023-06-10T07:45:41;101197.92;;;25.42;41.41
34073;BME280;20346;52.702;16.886;2023-06-10T07:48:27;101201.98;;;25.39;41.33
34073;BME280;20346;52.702;16.886;2023-06-10T07:51:14;101206.59;;;25.56;41.28
34073;BME280;20346;52.702;16.886;2023-06-10T07:54:00;101204.86;;;25.79;41.13
34073;BME280;20346;52.702;16.886;2023-06-10T07:56:46;101204.29;;;25.77;41.07
34073;BME280;20346;52.702;16.886;2023-06-10T07:59:32;101204.16;;;25.71;41.02
34073;BME280;20346;52.702;16.886;2023-06-10T08:02:18;101204.45;;;25.62;41.00
34073;BME280;20346;52.702;16.886;2023-06-10T08:05:04;101202.86;;;25.54;40.90
34073;BME280;20346;52.702;16.886;2023-06-10T08:07:50;101201.34;;;25.50;40.83
34073;BME280;20346;52.702;16.886;2023-06-10T08:10:36;101200.66;;;25.50;40.83
34073;BME280;20346;52.702;16.886;2023-06-10T08:13:22;101201.57;;;25.45;40.73
34073;BME280;20346;52.702;16.886;2023-06-10T08:16:08;101203.06;;;25.36;40.84
34073;BME280;20346;52.702;16.886;2023-06-10T08:18:54;101203.14;;;25.40;40.78
34073;BME280;20346;52.702;16.886;2023-06-10T08:21:40;101203.19;;;25.39;40.62
34073;BME280;20346;52.702;16.886;2023-06-10T08:24:26;101208.66;;;25.59;40.66
34073;BME280;20346;52.702;16.886;2023-06-10T08:27:12;101212.58;;;25.75;40.36
34073;BME280;20346;52.702;16.886;2023-06-10T08:29:58;101208.73;;;25.74;40.60
34073;BME280;20346;52.702;16.886;2023-06-10T08:32:46;101214.74;;;25.84;40.46
34073;BME280;20346;52.702;16.886;2023-06-10T08:35:31;101216.48;;;26.18;40.41
34073;BME280;20346;52.702;16.886;2023-06-10T08:38:17;101213.67;;;26.36;40.37
34073;BME280;20346;52.702;16.886;2023-06-10T08:41:05;101209.18;;;26.60;40.41
34073;BME280;20346;52.702;16.886;2023-06-10T08:43:54;101208.71;;;27.02;40.12
34073;BME280;20346;52.702;16.886;2023-06-10T08:46:45;101207.25;;;27.35;40.02
34073;BME280;20346;52.702;16.886;2023-06-10T08:49:31;101201.63;;;27.64;39.85
34073;BME280;20346;52.702;16.886;2023-06-10T08:52:20;101199.30;;;28.22;39.74
34073;BME280;20346;52.702;16.886;2023-06-10T08:55:18;101198.30;;;28.64;39.69
34073;BME280;20346;52.702;16.886;2023-06-10T08:58:08;101195.42;;;29.83;39.33
34073;BME280;20346;52.702;16.886;2023-06-10T09:00:54;101193.35;;;30.26;38.81
34073;BME280;20346;52.702;16.886;2023-06-10T09:03:40;101194.84;;;30.04;39.12
34073;BME280;20346;52.702;16.886;2023-06-10T09:06:27;101194.85;;;29.83;38.62
34073;BME280;20346;52.702;16.886;2023-06-10T09:09:14;101198.54;;;29.60;38.93
34073;BME280;20346;52.702;16.886;2023-06-10T09:12:00;101198.25;;;29.40;38.53
34073;BME280;20346;52.702;16.886;2023-06-10T09:14:46;101199.88;;;29.15;37.73
34073;BME280;20346;52.702;16.886;2023-06-10T09:17:32;101201.88;;;28.60;37.84
34073;BME280;20346;52.702;16.886;2023-06-10T09:20:18;101201.50;;;28.39;38.12
34073;BME280;20346;52.702;16.886;2023-06-10T09:23:04;101199.55;;;28.32;37.96
34073;BME280;20346;52.702;16.886;2023-06-10T09:25:57;101205.17;;;28.28;37.84
34073;BME280;20346;52.702;16.886;2023-06-10T09:28:49;101206.17;;;28.25;37.58
34073;BME280;20346;52.702;16.886;2023-06-10T09:31:35;101204.53;;;28.23;37.50
34073;BME280;20346;52.702;16.886;2023-06-10T09:34:24;101202.96;;;28.16;37.34
34073;BME280;20346;52.702;16.886;2023-06-10T09:37:10;101206.45;;;28.02;37.21
34073;BME280;20346;52.702;16.886;2023-06-10T09:40:05;101210.58;;;27.79;36.96
34073;BME280;20346;52.702;16.886;2023-06-10T09:42:55;101211.11;;;27.52;36.78
34073;BME280;20346;52.702;16.886;2023-06-10T09:45:42;101208.21;;;27.29;36.95
34073;BME280;20346;52.702;16.886;2023-06-10T09:48:28;101210.32;;;27.21;37.00
34073;BME280;20346;52.702;16.886;2023-06-10T09:51:14;101208.75;;;27.09;36.76
34073;BME280;20346;52.702;16.886;2023-06-10T09:54:03;101203.27;;;26.90;36.69
34073;BME280;20346;52.702;16.886;2023-06-10T09:56:49;101200.73;;;26.81;36.78
34073;BME280;20346;52.702;16.886;2023-06-10T09:59:37;101202.59;;;26.78;36.90
34073;BME280;20346;52.702;16.886;2023-06-10T10:02:23;101201.44;;;26.77;36.83
34073;BME280;20346;52.702;16.886;2023-06-10T10:05:09;101208.00;;;26.71;36.71
34073;BME280;20346;52.702;16.886;2023-06-10T10:07:55;101200.67;;;26.68;36.64
34073;BME280;20346;52.702;16.886;2023-06-10T10:10:42;101203.08;;;26.66;36.63
34073;BME280;20346;52.702;16.886;2023-06-10T10:13:28;101202.95;;;26.66;36.59
34073;BME280;20346;52.702;16.886;2023-06-10T10:16:15;101196.23;;;26.63;36.50
34073;BME280;20346;52.702;16.886;2023-06-10T10:19:04;101197.86;;;26.62;36.43
34073;BME280;20346;52.702;16.886;2023-06-10T10:21:53;101195.23;;;26.62;36.47
34073;BME280;20346;52.702;16.886;2023-06-10T10:24:46;101195.08;;;26.64;36.42
34073;BME280;20346;52.702;16.886;2023-06-10T10:27:35;101194.80;;;26.64;36.32
34073;BME280;20346;52.702;16.886;2023-06-10T10:30:22;101197.79;;;26.61;36.13
34073;BME280;20346;52.702;16.886;2023-06-10T10:36:13;101197.27;;;26.57;36.15
34073;BME280;20346;52.702;16.886;2023-06-10T10:38:59;101198.73;;;26.56;35.92
34073;BME280;20346;52.702;16.886;2023-06-10T10:41:47;101192.34;;;26.50;36.00
34073;BME280;20346;52.702;16.886;2023-06-10T10:44:35;101197.75;;;26.46;35.93
34073;BME280;20346;52.702;16.886;2023-06-10T10:47:21;101188.85;;;26.42;35.93
34073;BME280;20346;52.702;16.886;2023-06-10T10:50:14;101180.00;;;26.42;35.97
34073;BME280;20346;52.702;16.886;2023-06-10T10:53:04;101180.58;;;26.42;35.70
34073;BME280;20346;52.702;16.886;2023-06-10T10:59:02;101171.40;;;26.48;35.77
34073;BME280;20346;52.702;16.886;2023-06-10T11:01:49;101165.46;;;26.58;35.73
34073;BME280;20346;52.702;16.886;2023-06-10T11:04:35;101163.58;;;26.67;35.61
34073;BME280;20346;52.702;16.886;2023-06-10T11:28:04;101162.23;;;27.06;34.63
34073;BME280;20346;52.702;16.886;2023-06-10T11:38:24;101159.10;;;27.17;34.16
34073;BME280;20346;52.702;16.886;2023-06-10T11:41:34;101156.98;;;27.17;33.67
34073;BME280;20346;52.702;16.886;2023-06-10T11:48:05;101151.86;;;27.17;33.89
34073;BME280;20346;52.702;16.886;2023-06-10T13:21:52;101128.90;;;27.29;31.71
34073;BME280;20346;52.702;16.886;2023-06-10T13:24:38;101126.20;;;27.25;31.70
34073;BME280;20346;52.702;16.886;2023-06-10T13:27:22;101133.28;;;27.23;31.59
34073;BME280;20346;52.702;16.886;2023-06-10T13:30:07;101135.85;;;27.20;31.49
34073;BME280;20346;52.702;16.886;2023-06-10T13:32:52;101132.63;;;27.14;31.36
34073;BME280;20346;52.702;16.886;2023-06-10T13:35:36;101127.46;;;27.10;31.45
34073;BME280;20346;52.702;16.886;2023-06-10T13:38:20;101122.33;;;27.07;31.16
34073;BME280;20346;52.702;16.886;2023-06-10T13:41:04;101123.29;;;27.01;30.84
34073;BME280;20346;52.702;16.886;2023-06-10T13:43:48;101127.40;;;27.01;31.03
34073;BME280;20346;52.702;16.886;2023-06-10T13:46:32;101124.70;;;26.97;30.66
34073;BME280;20346;52.702;16.886;2023-06-10T13:49:16;101119.09;;;26.91;30.54
34073;BME280;20346;52.702;16.886;2023-06-10T13:52:00;101117.19;;;26.89;30.84
34073;BME280;20346;52.702;16.886;2023-06-10T13:54:44;101114.58;;;26.90;30.77
34073;BME280;20346;52.702;16.886;2023-06-10T13:57:28;101116.66;;;26.91;30.73
34073;BME280;20346;52.702;16.886;2023-06-10T14:00:12;101118.22;;;26.89;30.73
34073;BME280;20346;52.702;16.886;2023-06-10T14:02:57;101117.02;;;26.91;30.48
34073;BME280;20346;52.702;16.886;2023-06-10T14:05:40;101122.31;;;26.89;30.42
34073;BME280;20346;52.702;16.886;2023-06-10T14:08:25;101116.89;;;26.86;30.57
34073;BME280;20346;52.702;16.886;2023-06-10T14:11:09;101111.96;;;26.85;30.41
34073;BME280;20346;52.702;16.886;2023-06-10T14:13:53;101111.88;;;26.86;30.51
34073;BME280;20346;52.702;16.886;2023-06-10T14:16:39;101109.55;;;26.87;30.40
34073;BME280;20346;52.702;16.886;2023-06-10T14:19:25;101108.91;;;26.86;30.25
34073;BME280;20346;52.702;16.886;2023-06-10T14:22:11;101109.88;;;26.85;30.19
34073;BME280;20346;52.702;16.886;2023-06-10T14:24:57;101112.33;;;26.85;30.20
34073;BME280;20346;52.702;16.886;2023-06-10T14:27:43;101115.02;;;26.87;29.94
34073;BME280;20346;52.702;16.886;2023-06-10T14:30:29;101112.45;;;26.86;29.92
34073;BME280;20346;52.702;16.886;2023-06-10T14:33:15;101109.45;;;26.86;29.89
34073;BME280;20346;52.702;16.886;2023-06-10T14:36:01;101107.83;;;26.84;29.83
34073;BME280;20346;52.702;16.886;2023-06-10T14:38:46;101113.35;;;26.79;29.90
34073;BME280;20346;52.702;16.886;2023-06-10T14:41:32;101112.33;;;26.76;29.80
34073;BME280;20346;52.702;16.886;2023-06-10T14:44:18;101116.29;;;26.73;29.62
34073;BME280;20346;52.702;16.886;2023-06-10T14:47:04;101118.42;;;26.68;29.62
34073;BME280;20346;52.702;16.886;2023-06-10T14:49:50;101115.93;;;26.66;29.59
34073;BME280;20346;52.702;16.886;2023-06-10T14:52:36;101120.02;;;26.61;29.39
34073;BME280;20346;52.702;16.886;2023-06-10T14:55:22;101113.14;;;26.56;29.47
34073;BME280;20346;52.702;16.886;2023-06-10T14:58:10;101115.86;;;26.51;29.16
34073;BME280;20346;52.702;16.886;2023-06-10T15:00:56;101110.27;;;26.45;29.18
34073;BME280;20346;52.702;16.886;2023-06-10T15:03:42;101116.54;;;26.42;29.05
34073;BME280;20346;52.702;16.886;2023-06-10T15:06:28;101113.16;;;26.40;28.94
34073;BME280;20346;52.702;16.886;2023-06-10T15:09:14;101110.56;;;26.36;29.05
34073;BME280;20346;52.702;16.886;2023-06-10T15:12:00;101113.28;;;26.30;28.78
34073;BME280;20346;52.702;16.886;2023-06-10T15:14:47;101118.56;;;26.28;28.79
34073;BME280;20346;52.702;16.886;2023-06-10T15:17:33;101116.73;;;26.27;28.66
34073;BME280;20346;52.702;16.886;2023-06-10T15:20:19;101120.66;;;26.24;28.49
34073;BME280;20346;52.702;16.886;2023-06-10T15:23:05;101118.92;;;26.19;28.37
34073;BME280;20346;52.702;16.886;2023-06-10T15:25:51;101130.18;;;26.15;28.12
34073;BME280;20346;52.702;16.886;2023-06-10T15:28:36;101127.48;;;26.10;28.27
34073;BME280;20346;52.702;16.886;2023-06-10T15:31:22;101124.59;;;26.06;28.11
34073;BME280;20346;52.702;16.886;2023-06-10T15:34:08;101126.08;;;26.03;28.14
34073;BME280;20346;52.702;16.886;2023-06-10T15:36:54;101123.88;;;25.97;28.08
34073;BME280;20346;52.702;16.886;2023-06-10T15:39:40;101125.90;;;25.89;27.64
34073;BME280;20346;52.702;16.886;2023-06-10T15:42:26;101123.29;;;25.81;27.70
34073;BME280;20346;52.702;16.886;2023-06-10T15:45:12;101123.81;;;25.76;27.59
34073;BME280;20346;52.702;16.886;2023-06-10T15:47:58;101120.86;;;25.75;27.73
34073;BME280;20346;52.702;16.886;2023-06-10T15:50:44;101130.73;;;25.76;27.75
34073;BME280;20346;52.702;16.886;2023-06-10T15:53:30;101121.20;;;25.73;27.47
34073;BME280;20346;52.702;16.886;2023-06-10T15:56:16;101125.02;;;25.69;27.42
34073;BME280;20346;52.702;16.886;2023-06-10T15:59:02;101122.94;;;25.66;27.41
34073;BME280;20346;52.702;16.886;2023-06-10T16:01:48;101126.20;;;25.65;27.24
34073;BME280;20346;52.702;16.886;2023-06-10T16:04:34;101129.08;;;25.64;27.32
34073;BME280;20346;52.702;16.886;2023-06-10T16:07:20;101125.91;;;25.63;27.23
34073;BME280;20346;52.702;16.886;2023-06-10T16:10:06;101127.98;;;25.61;27.28
34073;BME280;20346;52.702;16.886;2023-06-10T16:12:52;101132.63;;;25.61;27.28
34073;BME280;20346;52.702;16.886;2023-06-10T16:15:38;101130.91;;;25.58;27.11
34073;BME280;20346;52.702;16.886;2023-06-10T16:18:24;101135.71;;;25.55;27.21
34073;BME280;20346;52.702;16.886;2023-06-10T16:21:10;101139.32;;;25.51;27.23
34073;BME280;20346;52.702;16.886;2023-06-10T16:23:56;101137.74;;;25.46;27.28
34073;BME280;20346;52.702;16.886;2023-06-10T16:26:42;101136.55;;;25.41;27.08
34073;BME280;20346;52.702;16.886;2023-06-10T16:29:28;101135.55;;;25.37;27.13
34073;BME280;20346;52.702;16.886;2023-06-10T16:32:14;101137.38;;;25.31;27.01
34073;BME280;20346;52.702;16.886;2023-06-10T16:35:00;101138.98;;;25.26;27.02